Time;durP1;ratioP1;P1;durP2;ratioP2;P2;SDS_P1;SDS_P2;PMS_P1;PMS_P2;Temp;Humidity;BMP_temperature;BMP_pressure;BME280_temperature;BME280_humidity;BME280_pressure;Samples;Min_cycle;Max_cycle;Signal;HPM_P1;HPM_P2
2022/07/15 00:01:28;;;;;;;8.50;3.03;;;;;;;15.07;66.04;102208.16;5084710;28;20461;-58
2022/07/15 00:03:53;;;;;;;11.82;3.08;;;;;;;15.01;66.29;102216.84;5084577;28;20485;-57
2022/07/15 00:06:19;;;;;;;13.52;3.10;;;;;;;14.93;66.63;102214.16;5085408;28;20035;-57
2022/07/15 00:08:44;;;;;;;12.18;3.05;;;;;;;14.90;67.16;102210.97;5087273;28;20025;-58
2022/07/15 00:11:09;;;;;;;11.77;3.00;;;;;;;14.85;67.46;102217.66;5088795;28;20035;-58
2022/07/15 00:13:35;;;;;;;11.43;3.13;;;;;;;14.81;67.26;102216.31;5085748;28;20036;-56
2022/07/15 00:16:00;;;;;;;12.70;3.03;;;;;;;14.81;67.79;102212.81;5083805;28;20028;-55
2022/07/15 00:18:25;;;;;;;9.32;2.80;;;;;;;14.75;67.77;102208.97;5082429;28;20032;-57
2022/07/15 00:20:50;;;;;;;7.43;2.78;;;;;;;14.66;68.13;102211.75;5078915;28;20036;-56
2022/07/15 00:23:16;;;;;;;9.45;3.15;;;;;;;14.61;67.89;102214.09;5080582;28;20024;-57
2022/07/15 00:25:41;;;;;;;12.40;3.40;;;;;;;14.54;68.46;102214.75;5078973;28;20020;-57
2022/07/15 00:28:07;;;;;;;10.68;3.10;;;;;;;14.49;68.09;102206.41;5077085;28;20051;-56
2022/07/15 00:30:38;;;;;;;8.05;3.25;;;;;;;14.43;68.33;102212.38;5080071;28;20167;-56
2022/07/15 00:33:04;;;;;;;10.57;2.97;;;;;;;14.38;68.59;102212.00;5078663;28;20028;-57
2022/07/15 00:35:30;;;;;;;8.25;3.08;;;;;;;14.37;69.05;102206.81;5081005;28;20037;-55
2022/07/15 00:37:56;;;;;;;13.00;3.40;;;;;;;14.34;69.34;102202.63;5079301;28;20047;-58
2022/07/15 00:40:22;;;;;;;7.97;3.30;;;;;;;14.27;69.51;102190.91;5082052;28;20641;-55
2022/07/15 00:42:47;;;;;;;10.75;3.30;;;;;;;14.17;69.64;102191.06;5084221;28;20028;-56
2022/07/15 00:45:21;;;;;;;10.77;3.10;;;;;;;14.07;69.68;102200.19;5084045;28;20026;-54
2022/07/15 00:47:49;;;;;;;6.10;2.80;;;;;;;14.01;69.68;102201.66;5080785;28;20107;-57
2022/07/15 00:50:16;;;;;;;11.43;3.15;;;;;;;13.94;69.72;102201.47;5084319;28;20034;-55
2022/07/15 00:52:45;;;;;;;10.70;3.33;;;;;;;13.85;69.80;102197.06;5084113;28;20128;-55
2022/07/15 00:55:12;;;;;;;8.80;2.97;;;;;;;13.73;69.92;102193.00;5082568;28;20482;-55
2022/07/15 00:57:44;;;;;;;9.15;3.45;;;;;;;13.70;70.23;102204.00;5082720;28;20735;-54
2022/07/15 01:00:12;;;;;;;10.45;3.63;;;;;;;13.62;70.20;102193.28;5081975;28;20032;-57
2022/07/15 01:02:39;;;;;;;10.02;3.40;;;;;;;13.56;70.18;102201.88;5082369;28;20020;-57
2022/07/15 01:05:06;;;;;;;10.15;3.28;;;;;;;13.60;70.92;102195.25;5083883;28;20044;-55
2022/07/15 01:07:33;;;;;;;9.40;3.28;;;;;;;13.51;70.67;102193.50;5080212;28;20503;-55
2022/07/15 01:09:58;;;;;;;9.50;3.40;;;;;;;13.44;70.60;102189.81;5084746;28;20141;-54
2022/07/15 01:12:25;;;;;;;8.77;3.35;;;;;;;13.38;71.13;102193.94;5080312;28;20104;-55
2022/07/15 01:14:50;;;;;;;11.32;3.78;;;;;;;13.42;71.28;102195.31;5082584;28;20191;-57
2022/07/15 01:17:16;;;;;;;6.82;3.33;;;;;;;13.45;71.20;102188.81;5080625;28;20554;-56
2022/07/15 01:19:41;;;;;;;11.10;3.20;;;;;;;13.43;71.77;102193.47;5083566;28;20502;-55
2022/07/15 01:22:07;;;;;;;12.52;3.63;;;;;;;13.48;71.64;102199.16;5081915;28;20549;-55
2022/07/15 01:24:33;;;;;;;9.18;3.10;;;;;;;13.51;71.64;102198.84;5085102;28;20008;-54
2022/07/15 01:27:00;;;;;;;10.52;3.47;;;;;;;13.48;71.93;102186.66;5081957;28;20052;-55
2022/07/15 01:29:25;;;;;;;12.38;3.45;;;;;;;13.44;72.18;102203.16;5080853;28;20032;-58
2022/07/15 01:31:51;;;;;;;11.93;3.78;;;;;;;13.47;72.12;102198.34;5079342;28;20031;-55
2022/07/15 01:34:16;;;;;;;12.27;3.58;;;;;;;13.49;72.47;102208.84;5081869;28;20606;-56
2022/07/15 01:36:41;;;;;;;7.93;3.10;;;;;;;13.44;72.37;102209.31;5083621;28;20020;-57
2022/07/15 01:39:06;;;;;;;8.13;3.22;;;;;;;13.40;72.23;102209.78;5079097;28;20671;-57
2022/07/15 01:41:32;;;;;;;9.93;3.20;;;;;;;13.32;72.25;102206.06;5081856;28;20025;-56
2022/07/15 01:43:57;;;;;;;7.72;3.40;;;;;;;13.22;72.55;102217.81;5084177;28;20051;-57
2022/07/15 01:46:23;;;;;;;12.52;3.42;;;;;;;13.13;72.36;102216.88;5080354;28;20022;-56
2022/07/15 01:51:32;;;;;;;9.10;3.60;;;;;;;12.95;73.30;102213.38;5084791;28;20117;-55
2022/07/15 01:53:57;;;;;;;9.25;3.88;;;;;;;12.93;73.16;102216.19;5082870;28;20392;-57
2022/07/15 01:56:23;;;;;;;11.95;4.05;;;;;;;12.88;73.06;102215.81;5085699;28;20488;-56
2022/07/15 01:58:48;;;;;;;9.55;3.42;;;;;;;12.77;73.35;102212.53;5085719;28;20534;-54
2022/07/15 02:01:14;;;;;;;10.55;3.85;;;;;;;12.78;73.59;102217.72;5080253;28;20027;-56
2022/07/15 02:03:39;;;;;;;7.35;3.33;;;;;;;12.76;74.17;102210.88;5083129;28;20020;-57
2022/07/15 02:06:05;;;;;;;12.07;3.78;;;;;;;12.77;74.31;102225.88;5083015;28;20021;-56
2022/07/15 02:08:30;;;;;;;8.15;3.58;;;;;;;12.80;74.21;102214.91;5080006;28;20017;-57
2022/07/15 02:10:55;;;;;;;9.40;3.67;;;;;;;12.77;74.16;102221.38;5081799;28;20039;-55
2022/07/15 02:13:21;;;;;;;13.43;3.97;;;;;;;12.76;74.00;102227.69;5079145;28;20029;-56
2022/07/15 02:15:47;;;;;;;9.70;3.63;;;;;;;12.68;74.29;102225.75;5083428;28;20016;-54
2022/07/15 02:18:12;;;;;;;8.68;3.50;;;;;;;12.71;74.43;102222.78;5079657;28;20065;-56
2022/07/15 02:20:38;;;;;;;13.00;4.47;;;;;;;12.64;74.46;102219.06;5083512;28;20042;-57
2022/07/15 02:23:04;;;;;;;9.02;3.30;;;;;;;12.61;74.39;102214.03;5075751;28;20020;-56
2022/07/15 02:25:31;;;;;;;13.38;4.43;;;;;;;12.59;74.65;102215.19;5083373;28;20020;-54
2022/07/15 02:28:00;;;;;;;7.82;3.38;;;;;;;12.52;74.96;102214.09;5084834;28;20032;-56
2022/07/15 02:30:26;;;;;;;10.93;3.80;;;;;;;12.53;75.41;102213.13;5077116;28;20021;-55
2022/07/15 02:32:52;;;;;;;8.55;3.88;;;;;;;12.59;75.76;102212.50;5081620;28;20027;-56
2022/07/15 02:35:17;;;;;;;11.75;3.97;;;;;;;12.60;75.68;102214.19;5079888;28;20392;-56
2022/07/15 02:37:43;;;;;;;10.15;4.00;;;;;;;12.58;75.89;102214.34;5083705;28;20031;-54
2022/07/15 02:40:09;;;;;;;13.30;3.67;;;;;;;12.56;75.61;102218.97;5082433;28;20028;-55
2022/07/15 02:42:35;;;;;;;8.02;3.50;;;;;;;12.56;76.22;102213.66;5079939;28;20034;-57
2022/07/15 02:45:01;;;;;;;9.43;3.47;;;;;;;12.58;75.84;102213.50;5076061;28;20016;-57
2022/07/15 02:47:26;;;;;;;9.57;3.95;;;;;;;12.59;75.90;102215.19;5083836;28;20440;-55
2022/07/15 02:49:51;;;;;;;10.52;3.67;;;;;;;12.57;76.26;102217.16;5084815;28;20144;-54
2022/07/15 02:52:17;;;;;;;10.18;3.92;;;;;;;12.51;75.93;102217.75;5076988;28;20028;-53
2022/07/15 02:54:42;;;;;;;8.43;3.70;;;;;;;12.43;76.26;102218.47;5081337;28;20562;-54
2022/07/15 02:57:07;;;;;;;10.32;3.70;;;;;;;12.34;75.75;102225.56;5081662;28;20020;-56
2022/07/15 02:59:33;;;;;;;8.02;3.80;;;;;;;12.27;76.05;102232.47;5084385;28;20878;-55
2022/07/15 03:01:59;;;;;;;9.73;3.80;;;;;;;12.18;75.99;102230.69;5078277;28;20024;-58
2022/07/15 03:04:24;;;;;;;8.23;3.50;;;;;;;12.18;76.08;102237.84;5080042;28;20743;-57
2022/07/15 03:06:49;;;;;;;8.52;3.53;;;;;;;12.12;76.19;102239.25;5084161;28;20069;-55
2022/07/15 03:09:14;;;;;;;11.60;3.65;;;;;;;12.07;76.10;102245.00;5080555;28;20019;-58
2022/07/15 03:11:40;;;;;;;10.38;4.10;;;;;;;12.06;76.46;102240.66;5079041;28;20016;-58
2022/07/15 03:14:06;;;;;;;8.43;3.67;;;;;;;12.05;76.43;102246.97;5077002;28;20024;-56
2022/07/15 03:16:31;;;;;;;7.53;3.45;;;;;;;12.06;76.88;102253.97;5080163;28;20024;-55
2022/07/15 03:18:56;;;;;;;10.18;4.03;;;;;;;12.04;76.78;102255.97;5076265;28;20081;-57
2022/07/15 03:21:22;;;;;;;9.80;3.70;;;;;;;12.03;77.29;102256.09;5080576;28;20043;-56
2022/07/15 03:23:47;;;;;;;7.10;3.47;;;;;;;12.04;77.35;102252.44;5081250;28;20124;-55
2022/07/15 03:26:12;;;;;;;12.93;3.95;;;;;;;12.09;77.58;102264.34;5082098;28;20476;-57
2022/07/15 03:28:38;;;;;;;13.30;4.72;;;;;;;12.04;77.40;102258.63;5080172;28;20451;-55
2022/07/15 03:31:03;;;;;;;8.88;3.70;;;;;;;12.05;77.94;102257.63;5080310;28;20034;-55
2022/07/15 03:33:28;;;;;;;10.50;4.35;;;;;;;12.02;77.75;102265.91;5080091;28;20043;-56
2022/07/15 03:35:54;;;;;;;9.82;4.00;;;;;;;12.04;78.16;102263.09;5082195;28;20036;-55
2022/07/15 03:38:19;;;;;;;10.20;4.13;;;;;;;12.07;78.06;102268.13;5080895;28;20140;-56
2022/07/15 03:40:44;;;;;;;8.38;4.22;;;;;;;12.08;78.46;102269.81;5080340;28;20067;-55
2022/07/15 03:43:10;;;;;;;10.38;4.32;;;;;;;12.05;78.50;102254.97;5077307;28;20028;-55
2022/07/15 03:45:35;;;;;;;14.05;4.50;;;;;;;12.10;78.48;102266.03;5076172;28;20029;-55
2022/07/15 03:48:00;;;;;;;12.43;4.53;;;;;;;12.15;78.45;102267.44;5080234;28;20055;-58
2022/07/15 03:50:26;;;;;;;12.88;4.43;;;;;;;12.16;79.08;102267.28;5082496;28;20815;-55
2022/07/15 03:52:51;;;;;;;13.82;4.40;;;;;;;12.18;78.82;102281.28;5081239;28;20028;-54
2022/07/15 03:55:16;;;;;;;13.20;4.40;;;;;;;12.21;78.93;102278.34;5077181;28;20035;-57
2022/07/15 03:57:41;;;;;;;10.73;4.13;;;;;;;12.20;78.77;102287.31;5083036;28;20473;-52
2022/07/15 04:00:07;;;;;;;9.38;3.92;;;;;;;12.14;79.00;102281.69;5079701;28;20028;-56
2022/07/15 04:02:33;;;;;;;10.10;3.90;;;;;;;12.14;78.90;102287.88;5080429;28;20047;-55
2022/07/15 04:04:58;;;;;;;9.98;3.90;;;;;;;12.20;79.32;102286.47;5082374;28;20028;-56
2022/07/15 04:07:23;;;;;;;10.30;4.60;;;;;;;12.21;78.64;102285.50;5079778;28;20039;-57
2022/07/15 04:09:49;;;;;;;11.13;4.38;;;;;;;12.24;79.34;102282.53;5078891;28;20031;-56
2022/07/15 04:12:14;;;;;;;10.95;4.32;;;;;;;12.22;79.21;102288.00;5080726;28;20032;-56
2022/07/15 04:14:39;;;;;;;9.02;4.10;;;;;;;12.28;79.45;102287.41;5084113;28;20047;-56
2022/07/15 04:17:05;;;;;;;11.27;4.05;;;;;;;12.29;79.31;102288.25;5086943;28;20477;-53
2022/07/15 04:19:31;;;;;;;9.45;4.30;;;;;;;12.29;79.59;102286.44;5083528;28;20027;-52
2022/07/15 04:21:56;;;;;;;12.20;4.55;;;;;;;12.34;79.67;102289.47;5082164;28;20382;-55
2022/07/15 04:24:21;;;;;;;9.77;4.40;;;;;;;12.40;79.63;102288.88;5084285;28;20036;-56
2022/07/15 04:26:47;;;;;;;12.82;5.05;;;;;;;12.49;80.14;102291.69;5088283;28;20135;-55
2022/07/15 04:29:12;;;;;;;14.10;4.63;;;;;;;12.56;80.10;102287.44;5080796;28;20023;-55
2022/07/15 04:31:37;;;;;;;9.52;4.50;;;;;;;12.56;80.16;102288.28;5082675;28;20036;-54
2022/07/15 04:34:03;;;;;;;13.52;4.95;;;;;;;12.66;80.36;102289.03;5081322;28;20040;-56
2022/07/15 04:36:28;;;;;;;13.43;4.50;;;;;;;12.70;79.54;102293.09;5082892;28;20806;-57
2022/07/15 04:38:53;;;;;;;9.73;4.13;;;;;;;12.74;79.89;102290.16;5087043;28;20580;-54
2022/07/15 04:41:18;;;;;;;12.05;4.00;;;;;;;12.76;79.82;102286.34;5078393;28;20557;-54
2022/07/15 04:43:44;;;;;;;10.05;4.13;;;;;;;12.81;79.99;102301.88;5081927;28;20044;-53
2022/07/15 04:46:09;;;;;;;11.07;4.50;;;;;;;12.82;80.30;102298.22;5086875;28;20020;-55
2022/07/15 04:51:18;;;;;;;12.48;4.45;;;;;;;12.90;80.26;102301.81;5082396;28;20096;-58
2022/07/15 04:53:44;;;;;;;10.93;4.20;;;;;;;12.92;80.65;102299.00;5076959;28;20048;-55
2022/07/15 04:56:10;;;;;;;14.07;4.70;;;;;;;12.98;80.76;102293.06;5080858;28;20116;-58
2022/07/15 04:58:35;;;;;;;12.68;4.22;;;;;;;13.06;80.72;102301.16;5079270;28;20441;-56
2022/07/15 05:01:01;;;;;;;9.45;3.90;;;;;;;13.07;80.90;102297.50;5080311;28;20570;-57
2022/07/15 05:03:27;;;;;;;9.65;4.10;;;;;;;13.15;81.09;102300.25;5078298;28;20510;-55
2022/07/15 05:05:52;;;;;;;8.68;3.75;;;;;;;13.19;80.99;102293.66;5086498;28;20067;-56
2022/07/15 05:08:17;;;;;;;14.52;4.68;;;;;;;13.27;81.11;102298.22;5082282;28;20427;-55
2022/07/15 05:10:42;;;;;;;13.20;4.40;;;;;;;13.32;81.61;102301.28;5079264;28;20094;-57
2022/07/15 05:13:08;;;;;;;14.15;4.20;;;;;;;13.39;81.28;102301.50;5079706;28;20553;-55
2022/07/15 05:15:34;;;;;;;14.13;3.80;;;;;;;13.46;81.29;102305.25;5084968;28;20074;-58
2022/07/15 05:17:59;;;;;;;12.75;4.55;;;;;;;13.53;81.43;102303.63;5079355;28;20787;-56
2022/07/15 05:20:24;;;;;;;7.50;4.20;;;;;;;13.57;81.46;102308.50;5067846;28;20036;-57
2022/07/15 05:22:50;;;;;;;13.23;4.13;;;;;;;13.64;81.81;102308.75;5077184;28;20477;-55
2022/07/15 05:25:15;;;;;;;15.63;4.40;;;;;;;13.69;81.63;102297.59;5084442;28;20024;-55
2022/07/15 05:27:41;;;;;;;13.05;4.10;;;;;;;13.79;82.00;102304.50;5078508;28;20460;-55
2022/07/15 05:30:08;;;;;;;10.93;4.18;;;;;;;13.85;81.61;102306.53;5080257;28;20024;-56
2022/07/15 05:32:33;;;;;;;10.35;4.15;;;;;;;13.90;81.62;102304.28;5076601;28;20102;-55
2022/07/15 05:34:59;;;;;;;13.52;3.75;;;;;;;14.00;81.34;102306.81;5077979;28;20036;-52
2022/07/15 05:37:24;;;;;;;10.55;3.88;;;;;;;14.04;81.53;102304.69;5087613;28;20050;-56
2022/07/15 05:39:56;;;;;;;9.32;3.70;;;;;;;14.09;81.35;102305.03;5085324;28;20042;-58
2022/07/15 05:42:22;;;;;;;12.13;4.00;;;;;;;14.13;80.84;102303.72;5078023;28;20036;-57
2022/07/15 05:44:47;;;;;;;13.75;4.13;;;;;;;14.21;80.53;102298.44;5077271;28;20023;-56
2022/07/15 05:47:13;;;;;;;8.38;3.03;;;;;;;14.23;80.70;102299.13;5091608;28;20023;-56
2022/07/15 05:49:39;;;;;;;9.55;3.40;;;;;;;14.25;80.36;102289.09;5084412;28;20093;-59
2022/07/15 05:52:04;;;;;;;13.48;3.15;;;;;;;14.34;80.04;102298.00;5086754;28;20059;-55
2022/07/15 05:54:30;;;;;;;9.45;3.60;;;;;;;14.38;80.50;102299.34;5090640;28;20031;-55
2022/07/15 05:56:55;;;;;;;11.20;3.25;;;;;;;14.40;79.72;102297.34;5092417;28;20055;-54
2022/07/15 05:59:20;;;;;;;11.18;3.22;;;;;;;14.46;79.58;102296.78;5094290;28;20050;-58
2022/07/15 06:01:46;;;;;;;9.27;3.95;;;;;;;14.53;79.45;102292.44;5089470;28;20077;-55
2022/07/15 06:04:13;;;;;;;9.88;3.63;;;;;;;14.57;79.35;102297.31;5087670;28;20484;-57
2022/07/15 06:06:38;;;;;;;8.25;3.25;;;;;;;14.64;79.37;102296.66;5085778;28;20032;-56
2022/07/15 06:09:04;;;;;;;11.32;3.30;;;;;;;14.69;79.13;102295.16;5089249;28;20571;-55
2022/07/15 06:11:29;;;;;;;11.02;3.30;;;;;;;14.72;78.84;102299.34;5092712;28;20016;-56
2022/07/15 06:13:54;;;;;;;9.05;2.88;;;;;;;14.80;78.71;102291.38;5092032;28;20032;-56
2022/07/15 06:16:19;;;;;;;13.35;3.35;;;;;;;14.83;78.70;102294.56;5089793;28;20038;-55
2022/07/15 06:18:45;;;;;;;7.35;1.85;;;;;;;14.90;77.66;102296.56;5088014;28;20024;-55
2022/07/15 06:21:11;;;;;;;8.43;1.80;;;;;;;14.98;77.20;102301.94;5098840;28;20147;-53
2022/07/15 06:23:36;;;;;;;7.25;1.50;;;;;;;15.09;76.00;102297.13;5093692;28;20055;-59
2022/07/15 06:26:02;;;;;;;6.30;1.58;;;;;;;15.17;75.36;102301.66;5096153;28;20051;-56
2022/07/15 06:28:27;;;;;;;9.60;1.88;;;;;;;15.31;74.83;102300.16;5092772;28;20536;-56
2022/07/15 06:30:52;;;;;;;8.48;1.85;;;;;;;15.39;74.41;102301.00;5087612;28;20038;-58
2022/07/15 06:33:17;;;;;;;9.68;1.58;;;;;;;15.46;73.58;102306.53;5088456;28;20388;-56
2022/07/15 06:35:43;;;;;;;6.60;1.40;;;;;;;15.50;73.08;102305.19;5078691;28;20074;-56
2022/07/15 06:38:08;;;;;;;8.52;1.58;;;;;;;15.58;72.49;102290.97;5089677;28;20370;-57
2022/07/15 06:40:34;;;;;;;9.85;1.60;;;;;;;15.67;72.64;102295.34;5096052;28;20031;-57
2022/07/15 06:42:59;;;;;;;7.95;1.50;;;;;;;15.70;72.43;102295.84;5091124;28;20031;-55
2022/07/15 06:45:25;;;;;;;10.40;1.50;;;;;;;15.77;71.58;102299.53;5089476;28;20028;-57
2022/07/15 06:47:50;;;;;;;9.80;1.50;;;;;;;15.82;70.92;102301.69;5087396;28;20504;-56
2022/07/15 06:50:15;;;;;;;8.20;1.50;;;;;;;15.87;70.34;102303.84;5081421;28;20027;-56
2022/07/15 06:52:41;;;;;;;7.95;1.40;;;;;;;15.93;70.36;102303.19;5087232;28;20016;-58
2022/07/15 06:55:07;;;;;;;5.80;1.35;;;;;;;15.96;69.76;102298.34;5091536;28;20401;-56
2022/07/15 06:57:32;;;;;;;5.90;1.27;;;;;;;16.05;69.27;102296.47;5091355;28;20051;-57
2022/07/15 06:59:57;;;;;;;6.63;1.30;;;;;;;16.15;69.35;102305.16;5088647;28;20024;-56
2022/07/15 07:02:23;;;;;;;9.65;1.38;;;;;;;16.22;68.50;102311.53;5085148;28;20019;-54
2022/07/15 07:04:49;;;;;;;8.82;1.55;;;;;;;16.26;68.13;102303.97;5089212;28;20103;-56
2022/07/15 07:07:14;;;;;;;8.18;1.60;;;;;;;16.30;67.26;102302.59;5096309;28;20103;-57
2022/07/15 07:09:40;;;;;;;6.55;1.40;;;;;;;16.34;66.91;102304.75;5091357;28;20085;-54
2022/07/15 07:12:06;;;;;;;5.88;1.38;;;;;;;16.35;66.86;102297.56;5085587;28;20024;-53
2022/07/15 07:14:31;;;;;;;4.80;1.20;;;;;;;16.45;66.42;102308.91;5092644;28;20023;-55
2022/07/15 07:16:56;;;;;;;6.55;1.33;;;;;;;16.41;65.80;102315.63;5092448;28;20020;-56
2022/07/15 07:19:22;;;;;;;4.50;0.90;;;;;;;16.42;64.94;102315.44;5089778;28;20042;-58
2022/07/15 07:21:47;;;;;;;7.07;1.30;;;;;;;16.49;64.70;102318.31;5086417;28;20465;-57
2022/07/15 07:24:13;;;;;;;8.57;1.25;;;;;;;16.47;64.79;102322.13;5086494;28;20060;-57
2022/07/15 07:26:38;;;;;;;5.18;1.25;;;;;;;16.44;64.03;102320.63;5098066;28;20480;-56
2022/07/15 07:29:03;;;;;;;6.95;1.45;;;;;;;16.43;63.84;102311.75;5095387;28;20030;-55
2022/07/15 07:31:29;;;;;;;11.00;1.50;;;;;;;16.46;63.76;102321.31;5089571;28;20039;-57
2022/07/15 07:33:58;;;;;;;8.02;1.70;;;;;;;16.49;63.77;102320.16;5082964;28;20549;-57
2022/07/15 07:36:24;;;;;;;10.43;1.92;;;;;;;16.55;63.92;102322.97;5083115;28;20138;-56
2022/07/15 07:38:49;;;;;;;8.50;1.45;;;;;;;16.62;64.23;102325.78;5085592;28;20042;-56
2022/07/15 07:41:15;;;;;;;5.07;1.40;;;;;;;16.72;63.67;102331.78;5080446;28;20016;-53
2022/07/15 07:43:41;;;;;;;6.15;1.40;;;;;;;16.77;63.90;102325.91;5086787;28;20024;-56
2022/07/15 07:46:06;;;;;;;5.90;1.30;;;;;;;16.85;63.42;102323.19;5089177;28;20080;-55
2022/07/15 07:48:31;;;;;;;5.47;1.35;;;;;;;16.86;62.97;102325.72;5084185;28;20012;-57
2022/07/15 07:50:57;;;;;;;4.68;1.45;;;;;;;16.88;62.48;102330.91;5084950;28;20050;-56
2022/07/15 07:53:24;;;;;;;9.50;1.50;;;;;;;16.86;61.97;102335.59;5084281;28;20019;-57
2022/07/15 07:55:50;;;;;;;6.70;1.27;;;;;;;16.87;62.21;102331.91;5085622;28;20020;-54
2022/07/15 07:58:16;;;;;;;7.93;1.55;;;;;;;16.91;62.12;102334.06;5087031;28;20027;-59
2022/07/15 08:00:42;;;;;;;6.53;1.27;;;;;;;16.97;62.35;102335.19;5090931;28;20392;-58
2022/07/15 08:03:08;;;;;;;6.88;1.70;;;;;;;17.03;61.63;102332.63;5086439;28;20052;-56
2022/07/15 08:05:33;;;;;;;7.78;1.23;;;;;;;17.03;61.64;102332.63;5088416;28;20150;-56
2022/07/15 08:08:13;;;;;;;6.35;1.40;;;;;;;17.07;60.83;102329.63;5097151;28;20019;-58
2022/07/15 08:10:40;;;;;;;7.25;1.30;;;;;;;17.16;61.27;102326.72;5084541;28;20032;-58
2022/07/15 08:13:05;;;;;;;5.72;1.35;;;;;;;17.22;60.46;102314.41;5086041;28;20504;-56
2022/07/15 08:15:31;;;;;;;6.47;1.20;;;;;;;17.25;60.41;102312.22;5086586;28;20066;-56
2022/07/15 08:17:56;;;;;;;3.05;1.13;;;;;;;17.40;61.00;102320.34;5092760;28;20028;-58
2022/07/15 08:20:22;;;;;;;3.28;1.20;;;;;;;17.52;59.87;102324.25;5085418;28;20043;-59
2022/07/15 08:22:47;;;;;;;5.63;1.15;;;;;;;17.58;59.22;102323.53;5084482;28;20032;-56
2022/07/15 08:25:12;;;;;;;4.15;1.20;;;;;;;17.67;59.71;102326.19;5092276;28;20016;-56
2022/07/15 08:27:37;;;;;;;4.95;1.10;;;;;;;17.73;59.24;102334.38;5089787;28;20023;-56
2022/07/15 08:30:03;;;;;;;8.23;1.40;;;;;;;17.86;59.43;102331.91;5088537;28;20388;-56
2022/07/15 08:32:29;;;;;;;6.35;1.38;;;;;;;17.97;58.46;102324.41;5083947;28;20039;-57
2022/07/15 08:34:54;;;;;;;5.72;1.10;;;;;;;18.05;58.66;102327.03;5085936;28;20024;-55
2022/07/15 08:37:19;;;;;;;7.90;1.10;;;;;;;18.13;57.28;102326.94;5085119;28;20649;-55
2022/07/15 08:39:45;;;;;;;5.32;1.20;;;;;;;18.17;56.73;102320.16;5090971;28;20028;-57
2022/07/15 08:42:10;;;;;;;7.75;1.23;;;;;;;18.26;57.10;102327.97;5085906;28;20027;-57
2022/07/15 08:44:35;;;;;;;5.65;0.95;;;;;;;18.32;55.84;102321.00;5084466;28;20224;-56
2022/07/15 08:47:03;;;;;;;5.40;1.42;;;;;;;18.45;55.93;102325.72;5085691;28;20381;-58
2022/07/15 08:49:31;;;;;;;3.03;1.00;;;;;;;18.62;55.86;102321.00;5097422;28;20032;-57
2022/07/15 08:51:58;;;;;;;6.90;1.27;;;;;;;18.77;55.64;102319.97;5083782;28;20146;-55
2022/07/15 08:54:24;;;;;;;8.70;1.30;;;;;;;18.77;54.76;102311.91;5088085;28;20028;-57
2022/07/15 08:56:49;;;;;;;8.13;1.50;;;;;;;18.80;54.09;102308.03;5090138;28;20507;-59
2022/07/15 08:59:14;;;;;;;3.97;1.20;;;;;;;19.13;54.86;102313.78;5092247;28;20631;-56
2022/07/15 09:01:48;;;;;;;6.68;1.40;;;;;;;19.17;54.21;102315.06;5100290;28;20023;-55
2022/07/15 09:04:14;;;;;;;7.57;1.40;;;;;;;19.38;54.12;102320.47;5093751;28;20024;-57
2022/07/15 09:06:47;;;;;;;5.03;1.05;;;;;;;19.51;53.47;102317.03;5089777;28;20031;-55
2022/07/15 09:09:34;;;;;;;6.63;1.27;;;;;;;19.76;53.30;102314.81;5090164;28;20027;-56
2022/07/15 09:12:07;;;;;;;7.55;1.10;;;;;;;19.87;52.91;102308.88;5088999;28;20054;-59
2022/07/15 09:14:34;;;;;;;6.55;1.45;;;;;;;20.06;52.44;102310.88;5090712;28;20027;-56
2022/07/15 09:17:21;;;;;;;2.45;0.80;;;;;;;20.08;50.81;102311.50;5089552;28;20024;-57
2022/07/15 09:19:55;;;;;;;6.57;1.10;;;;;;;19.81;49.79;102312.34;5082254;28;20572;-55
2022/07/15 09:22:21;;;;;;;3.78;1.30;;;;;;;19.84;49.86;102300.34;5094417;28;20047;-56
2022/07/15 09:24:50;;;;;;;9.52;1.45;;;;;;;19.95;49.50;102311.44;5095678;28;20364;-55
2022/07/15 09:27:29;;;;;;;5.53;1.10;;;;;;;20.04;50.10;102315.63;5090611;28;20442;-57
2022/07/15 09:38:07;;;;;;;5.05;1.10;;;;;;;20.42;48.49;102309.88;5090946;28;20066;-58
2022/07/15 09:40:33;;;;;;;6.07;1.38;;;;;;;20.38;47.35;102312.09;5096778;28;20020;-58
2022/07/15 09:43:05;;;;;;;3.58;0.95;;;;;;;20.62;47.79;102318.91;5098814;28;20032;-57
2022/07/15 09:45:32;;;;;;;11.68;1.25;;;;;;;20.78;47.92;102306.91;5085552;28;20080;-58
2022/07/15 09:48:08;;;;;;;5.18;1.00;;;;;;;21.22;48.85;102310.97;5089541;28;20027;-58
2022/07/15 09:50:35;;;;;;;5.05;1.42;;;;;;;21.39;48.32;102311.44;5091191;28;20500;-56
2022/07/15 09:53:04;;;;;;;4.07;1.10;;;;;;;21.54;47.76;102309.38;5091705;28;20051;-58
2022/07/15 09:55:30;;;;;;;;;;;;;;;21.81;48.35;102304.81;5092580;28;20039;-57
2022/07/15 09:57:59;;;;;;;3.20;1.20;;;;;;;21.93;47.53;102297.72;5092826;28;19967;-58
2022/07/15 10:00:24;;;;;;;2.30;0.80;;;;;;;22.17;47.25;102302.47;5087566;28;20032;-58
2022/07/15 10:02:51;;;;;;;3.80;1.10;;;;;;;22.28;47.22;102301.03;5085258;28;20058;-58
2022/07/15 10:05:16;;;;;;;6.07;1.10;;;;;;;22.58;47.11;102312.16;5087796;28;20034;-56
2022/07/15 10:07:43;;;;;;;3.63;1.02;;;;;;;22.64;45.06;102299.63;5087041;28;20556;-56
2022/07/15 10:10:09;;;;;;;3.53;1.00;;;;;;;22.46;44.26;102295.72;5087810;28;20426;-57
2022/07/15 10:12:49;;;;;;;4.03;1.15;;;;;;;22.43;42.79;102290.75;5087299;28;20465;-56
2022/07/15 10:15:37;;;;;;;2.40;1.00;;;;;;;22.24;43.06;102288.94;5094630;28;20046;-57
2022/07/15 10:18:11;;;;;;;2.50;0.88;;;;;;;22.09;42.93;102291.06;5089525;28;20059;-55
2022/07/15 10:21:00;;;;;;;4.82;1.17;;;;;;;22.03;43.43;102290.00;5087188;28;20028;-55
2022/07/15 10:23:31;;;;;;;4.05;0.90;;;;;;;21.96;42.75;102284.59;5083983;28;20389;-56
2022/07/15 10:26:18;;;;;;;8.05;1.25;;;;;;;21.91;42.44;102283.56;5091732;28;20989;-56
2022/07/15 10:28:58;;;;;;;5.38;1.10;;;;;;;21.86;41.80;102286.91;5081994;28;20515;-59
2022/07/15 10:31:29;;;;;;;3.38;0.73;;;;;;;21.84;41.93;102289.00;5087224;28;20028;-57
2022/07/15 10:34:06;;;;;;;5.68;0.95;;;;;;;22.10;42.18;102287.31;5091143;28;20023;-57
2022/07/15 10:36:47;;;;;;;4.07;0.90;;;;;;;22.40;42.92;102288.47;5087131;28;20469;-56
2022/07/15 10:39:16;;;;;;;3.58;0.93;;;;;;;22.67;42.52;102277.53;5083940;28;20050;-58
2022/07/15 10:41:52;;;;;;;6.10;1.15;;;;;;;22.70;41.28;102275.22;5085912;28;20067;-59
2022/07/15 10:44:18;;;;;;;3.47;0.80;;;;;;;22.92;41.42;102272.22;5086544;28;20097;-57
2022/07/15 10:46:44;;;;;;;1.60;0.70;;;;;;;22.98;41.09;102269.47;5084714;28;20024;-57
2022/07/15 10:49:09;;;;;;;1.95;0.65;;;;;;;22.88;40.81;102262.88;5085941;28;20023;-56
2022/07/15 10:51:34;;;;;;;3.65;1.08;;;;;;;22.73;40.32;102268.53;5087905;28;20022;-57
2022/07/15 10:54:00;;;;;;;1.80;0.80;;;;;;;22.62;40.94;102269.22;5090741;28;20045;-57
2022/07/15 10:56:37;;;;;;;1.90;0.80;;;;;;;22.54;39.87;102263.00;5092069;28;20419;-56
2022/07/15 10:59:08;;;;;;;2.03;0.70;;;;;;;22.54;39.42;102259.47;5087524;28;20042;-57
2022/07/15 11:01:34;;;;;;;2.78;0.60;;;;;;;22.72;38.83;102250.63;5086221;28;20062;-58
2022/07/15 11:04:23;;;;;;;2.60;0.75;;;;;;;23.02;39.45;102249.00;5083412;28;20060;-58
2022/07/15 11:09:50;;;;;;;4.22;0.90;;;;;;;23.34;40.18;102248.97;5083631;28;20051;-57
2022/07/15 11:12:18;;;;;;;1.80;0.70;;;;;;;23.31;40.10;102244.00;5082092;28;20036;-54
2022/07/15 11:14:52;;;;;;;3.72;0.90;;;;;;;23.22;40.55;102248.06;5079535;28;20038;-59
2022/07/15 11:17:39;;;;;;;2.78;1.10;;;;;;;23.05;40.14;102248.56;5075699;28;20055;-56
2022/07/15 11:20:08;;;;;;;3.53;0.82;;;;;;;23.07;40.17;102251.88;5084616;28;20032;-58
2022/07/15 11:22:34;;;;;;;;;;;;;;;23.23;40.60;102255.13;5093294;28;20459;-59
2022/07/15 11:24:59;;;;;;;3.17;0.77;;;;;;;22.97;40.75;102246.13;5093153;28;20019;-57
2022/07/15 11:27:25;;;;;;;2.20;0.88;;;;;;;22.95;40.17;102242.00;5084776;28;20020;-58
2022/07/15 11:29:54;;;;;;;3.45;0.77;;;;;;;23.06;40.91;102239.38;5087291;28;20028;-58
2022/07/15 11:32:20;;;;;;;;;;;;;;;23.25;40.03;102228.63;5085153;28;20016;-59
2022/07/15 11:34:51;;;;;;;2.65;0.70;;;;;;;22.77;39.48;102243.50;5079568;28;19919;-57
2022/07/15 11:37:19;;;;;;;1.60;0.68;;;;;;;22.55;39.50;102231.34;5076456;28;20035;-56
2022/07/15 11:39:47;;;;;;;1.75;0.57;;;;;;;22.86;39.91;102217.03;5072116;28;20032;-56